Time;durP1;ratioP1;P1;durP2;ratioP2;P2;SDS_P1;SDS_P2;PMS_P1;PMS_P2;Temp;Humidity;BMP_temperature;BMP_pressure;BME280_temperature;BME280_humidity;BME280_pressure;Samples;Min_cycle;Max_cycle;Signal;HPM_P1;HPM_P2
2023/07/25 00:00:59;;;;;;;2.53;0.70;;;;;;;14.96;100.00;99446.84;5013944;28;20184;-85
2023/07/25 00:03:25;;;;;;;0.47;0.47;;;;;;;14.87;100.00;99452.56;5020266;28;20239;-86
2023/07/25 00:05:50;;;;;;;0.10;0.10;;;;;;;14.84;100.00;99464.28;5008742;28;20800;-84
2023/07/25 00:08:15;;;;;;;0.10;0.10;;;;;;;14.93;100.00;99455.03;5015225;28;20189;-85
2023/07/25 00:10:40;;;;;;;0.30;0.23;;;;;;;14.89;100.00;99461.22;5015250;28;20194;-84
2023/07/25 00:13:06;;;;;;;0.10;0.10;;;;;;;14.84;100.00;99456.03;5005233;28;20568;-85
2023/07/25 00:15:31;;;;;;;0.10;0.10;;;;;;;14.81;100.00;99453.22;5020966;28;20210;-86
2023/07/25 00:17:56;;;;;;;0.20;0.20;;;;;;;14.74;100.00;99453.06;5015748;28;20191;-85
2023/07/25 00:20:22;;;;;;;0.20;0.20;;;;;;;14.67;100.00;99451.00;5002091;28;20326;-85
2023/07/25 00:22:47;;;;;;;0.30;0.30;;;;;;;14.61;100.00;99444.22;5008531;28;20302;-86
2023/07/25 00:25:13;;;;;;;0.40;0.30;;;;;;;14.54;100.00;99444.84;5026598;28;20563;-84
2023/07/25 00:27:38;;;;;;;0.30;0.30;;;;;;;14.47;100.00;99458.47;5017135;28;20184;-85
2023/07/25 00:30:04;;;;;;;0.23;0.23;;;;;;;14.42;100.00;99455.16;5026237;28;20650;-84
2023/07/25 00:32:30;;;;;;;0.10;0.00;;;;;;;14.37;100.00;99463.69;5020294;28;20201;-85
2023/07/25 00:34:55;;;;;;;0.20;0.20;;;;;;;14.27;100.00;99468.59;5014627;28;20611;-84
2023/07/25 00:37:20;;;;;;;2.00;1.80;;;;;;;14.25;100.00;99470.91;4997121;28;20246;-85
2023/07/25 00:39:45;;;;;;;26.10;1.27;;;;;;;14.15;100.00;99473.44;5013613;28;20191;-84
2023/07/25 00:42:11;;;;;;;0.10;0.10;;;;;;;14.15;100.00;99463.22;5025662;28;20194;-85
2023/07/25 00:44:36;;;;;;;0.50;0.17;;;;;;;14.14;100.00;99469.09;5026089;28;20199;-84
2023/07/25 00:47:01;;;;;;;0.00;0.00;;;;;;;14.17;100.00;99469.16;5024172;28;20184;-84
2023/07/25 00:49:27;;;;;;;1.77;1.47;;;;;;;14.17;100.00;99477.41;5004964;28;20180;-84
2023/07/25 00:51:52;;;;;;;0.07;0.07;;;;;;;14.16;100.00;99475.81;5005432;28;20187;-84
2023/07/25 00:54:17;;;;;;;0.67;0.27;;;;;;;14.14;100.00;99469.09;5034189;28;20219;-85
2023/07/25 00:56:43;;;;;;;8.03;1.90;;;;;;;14.06;100.00;99467.34;5018297;28;20180;-85
2023/07/25 00:59:08;;;;;;;1.80;1.70;;;;;;;14.06;100.00;99478.34;5007672;28;20183;-84
2023/07/25 01:01:34;;;;;;;27.13;0.87;;;;;;;14.07;100.00;99475.22;5019108;28;20180;-85
2023/07/25 01:04:00;;;;;;;5.60;1.80;;;;;;;14.08;100.00;99474.06;5024299;28;20338;-85
2023/07/25 01:06:26;;;;;;;2.10;1.37;;;;;;;14.04;100.00;99478.69;5003004;28;20314;-86
2023/07/25 01:08:54;;;;;;;28.80;3.37;;;;;;;14.01;100.00;99476.66;5014580;28;20192;-83
2023/07/25 01:11:20;;;;;;;0.30;0.30;;;;;;;14.04;100.00;99470.47;5029452;28;20241;-85
2023/07/25 01:13:46;;;;;;;4.90;1.60;;;;;;;14.02;100.00;99471.94;5030385;28;20209;-84
2023/07/25 01:16:16;;;;;;;1.00;1.00;;;;;;;13.98;100.00;99482.88;5018223;28;20198;-85
2023/07/25 01:18:42;;;;;;;0.37;0.37;;;;;;;13.97;100.00;99486.75;5034012;28;20180;-86
2023/07/25 01:21:08;;;;;;;2.17;2.03;;;;;;;13.95;100.00;99483.59;5014382;28;20195;-85
2023/07/25 01:23:36;;;;;;;9.73;1.90;;;;;;;13.94;100.00;99490.22;5004682;28;20216;-84
2023/07/25 01:26:01;;;;;;;4.67;0.30;;;;;;;13.90;100.00;99492.91;4998787;28;20191;-84
2023/07/25 01:28:27;;;;;;;1.00;1.00;;;;;;;13.83;100.00;99486.44;5033841;28;20556;-84
2023/07/25 01:30:52;;;;;;;0.43;0.43;;;;;;;13.89;100.00;99488.56;5033529;28;20184;-84
2023/07/25 01:33:17;;;;;;;7.17;1.93;;;;;;;13.89;100.00;99491.31;5033410;28;20653;-84
2023/07/25 01:35:42;;;;;;;1.23;0.93;;;;;;;13.86;100.00;99489.25;5025900;28;20180;-85
2023/07/25 01:38:08;;;;;;;0.33;0.33;;;;;;;13.87;100.00;99495.53;5032862;28;20171;-84
2023/07/25 01:40:33;;;;;;;4.77;0.70;;;;;;;13.89;100.00;99493.25;5033226;28;20259;-85
2023/07/25 01:42:58;;;;;;;4.73;1.27;;;;;;;13.86;100.00;99494.75;5032984;28;20243;-86
2023/07/25 01:45:24;;;;;;;2.73;1.40;;;;;;;13.90;100.00;99503.09;5025160;28;20266;-84
2023/07/25 01:47:49;;;;;;;7.20;1.37;;;;;;;13.93;100.00;99502.38;5032604;28;20178;-84
2023/07/25 01:50:15;;;;;;;0.57;0.47;;;;;;;13.95;100.00;99505.56;4999354;28;20185;-84
2023/07/25 01:52:40;;;;;;;0.63;0.63;;;;;;;14.02;100.00;99507.66;5017541;28;20617;-84
2023/07/25 01:55:06;;;;;;;4.23;1.43;;;;;;;14.04;100.00;99508.13;5032139;28;20180;-85
2023/07/25 01:57:31;;;;;;;0.80;0.80;;;;;;;13.99;100.00;99501.72;5018438;28;20280;-85
2023/07/25 02:00:00;;;;;;;0.50;0.50;;;;;;;14.05;100.00;99502.25;5003755;28;20648;-84
2023/07/25 02:02:25;;;;;;;9.07;3.03;;;;;;;13.99;100.00;99496.22;5008221;28;20579;-84
2023/07/25 02:04:50;;;;;;;3.57;1.23;;;;;;;14.00;100.00;99500.56;5016190;28;20250;-84
2023/07/25 02:07:15;;;;;;;5.70;0.97;;;;;;;13.98;100.00;99505.63;5028717;28;20195;-86
2023/07/25 02:09:41;;;;;;;0.43;0.43;;;;;;;13.97;100.00;99497.75;5003068;28;20222;-85
2023/07/25 02:12:07;;;;;;;4.33;0.50;;;;;;;14.03;100.00;99510.03;5005240;28;20195;-85
2023/07/25 02:14:32;;;;;;;0.93;0.53;;;;;;;14.08;100.00;99509.00;5026191;28;20193;-85
2023/07/25 02:16:58;;;;;;;0.50;0.50;;;;;;;14.08;100.00;99511.72;5023134;28;20677;-84
2023/07/25 02:19:23;;;;;;;0.87;0.87;;;;;;;13.98;100.00;99505.63;5012104;28;20219;-85
2023/07/25 02:21:48;;;;;;;0.50;0.50;;;;;;;14.08;100.00;99507.03;4996829;28;20609;-84
2023/07/25 02:24:13;;;;;;;1.80;0.53;;;;;;;14.15;100.00;99509.94;5027025;28;20249;-85
2023/07/25 02:26:39;;;;;;;0.43;0.40;;;;;;;14.21;100.00;99514.00;5027907;28;20542;-86
2023/07/25 02:29:04;;;;;;;0.20;0.20;;;;;;;14.16;100.00;99497.78;5017127;28;20180;-85
2023/07/25 02:31:30;;;;;;;0.43;0.43;;;;;;;14.18;100.00;99501.00;5035754;28;20179;-84
2023/07/25 02:33:55;;;;;;;1.13;1.13;;;;;;;14.24;100.00;99504.25;5009964;28;20204;-85
2023/07/25 02:36:20;;;;;;;0.40;0.40;;;;;;;14.23;100.00;99505.41;5031720;28;20185;-84
2023/07/25 02:38:45;;;;;;;1.00;0.97;;;;;;;14.23;100.00;99505.41;5024564;28;20188;-84
2023/07/25 02:41:11;;;;;;;0.47;0.30;;;;;;;14.24;100.00;99507.00;5024609;28;20196;-86
2023/07/25 02:43:36;;;;;;;2.17;1.17;;;;;;;14.22;100.00;99507.34;5013892;28;20752;-85
2023/07/25 02:46:01;;;;;;;2.43;0.30;;;;;;;14.20;100.00;99506.13;5018863;28;20183;-86
2023/07/25 02:48:27;;;;;;;0.10;0.10;;;;;;;14.21;100.00;99496.72;5013358;28;20280;-86
2023/07/25 02:50:52;;;;;;;0.70;0.70;;;;;;;14.23;100.00;99494.41;5018456;28;20183;-84
2023/07/25 02:53:17;;;;;;;0.20;0.20;;;;;;;14.23;100.00;99494.41;5017271;28;20207;-85
2023/07/25 02:55:43;;;;;;;1.17;1.07;;;;;;;14.20;100.00;99495.94;5007165;28;20187;-86
2023/07/25 02:58:08;;;;;;;0.20;0.20;;;;;;;14.18;100.00;99502.94;5026985;28;20195;-85
2023/07/25 03:00:33;;;;;;;0.73;0.73;;;;;;;14.18;100.00;99495.50;5006816;28;20202;-85
2023/07/25 03:02:59;;;;;;;0.00;0.00;;;;;;;14.25;100.00;99487.41;5014908;28;20231;-85
2023/07/25 03:05:27;;;;;;;7.03;1.77;;;;;;;14.22;100.00;99490.88;5024816;28;20623;-86
2023/07/25 03:07:52;;;;;;;0.50;0.50;;;;;;;14.20;100.00;99498.69;5032076;28;20719;-85
2023/07/25 03:10:17;;;;;;;0.17;0.17;;;;;;;14.16;100.00;99494.25;5002136;28;20184;-84
2023/07/25 03:12:42;;;;;;;0.10;0.10;;;;;;;14.16;100.00;99489.53;5006616;28;20685;-84
2023/07/25 03:15:08;;;;;;;0.50;0.50;;;;;;;14.20;100.00;99495.94;5033149;28;20242;-85
2023/07/25 03:17:34;;;;;;;0.43;0.43;;;;;;;14.18;100.00;99495.50;5022664;28;20179;-85
2023/07/25 03:19:59;;;;;;;0.87;0.47;;;;;;;14.22;100.00;99504.59;5016710;28;20180;-84
2023/07/25 03:22:25;;;;;;;0.23;0.20;;;;;;;14.22;100.00;99504.59;5012043;28;20207;-84
2023/07/25 03:24:50;;;;;;;0.00;0.00;;;;;;;14.27;100.00;99504.31;5019290;28;20223;-85
2023/07/25 03:27:16;;;;;;;0.00;0.00;;;;;;;14.28;100.00;99496.88;5027846;28;20186;-83
2023/07/25 03:29:42;;;;;;;9.50;1.20;;;;;;;14.27;100.00;99495.28;5020144;28;20180;-84
2023/07/25 03:32:07;;;;;;;0.67;0.60;;;;;;;14.24;100.00;99494.06;5008938;28;20184;-84
2023/07/25 03:34:32;;;;;;;3.30;1.37;;;;;;;14.21;100.00;99491.25;5011821;28;20613;-85
2023/07/25 03:36:58;;;;;;;0.13;0.13;;;;;;;14.25;100.00;99495.66;5031844;28;20202;-85
2023/07/25 03:39:23;;;;;;;0.40;0.40;;;;;;;14.22;100.00;99488.13;5029216;28;20171;-84
2023/07/25 03:41:48;;;;;;;0.17;0.17;;;;;;;14.27;100.00;99487.03;5001014;28;20183;-84
2023/07/25 03:44:17;;;;;;;0.20;0.20;;;;;;;14.29;100.00;99482.78;5015376;28;20251;-84
2023/07/25 03:46:43;;;;;;;0.60;0.60;;;;;;;14.28;100.00;99483.94;5031361;28;20179;-84
2023/07/25 03:49:09;;;;;;;12.93;0.77;;;;;;;14.21;100.00;99480.25;5026777;28;20176;-82
2023/07/25 03:51:36;;;;;;;0.93;0.83;;;;;;;14.15;100.00;99484.41;5009280;28;20195;-84
2023/07/25 03:54:02;;;;;;;0.90;0.90;;;;;;;14.09;100.00;99503.13;5008946;28;20196;-85
2023/07/25 03:56:28;;;;;;;0.43;0.43;;;;;;;14.11;100.00;99495.31;5035272;28;20176;-85
2023/07/25 03:58:53;;;;;;;3.60;1.23;;;;;;;14.09;100.00;99497.63;5034016;28;20282;-84
2023/07/25 04:01:18;;;;;;;24.43;2.43;;;;;;;14.10;100.00;99501.19;4997506;28;20234;-84
2023/07/25 04:03:43;;;;;;;1.10;0.80;;;;;;;14.16;100.00;99507.97;5011855;28;20211;-86
2023/07/25 04:06:09;;;;;;;0.47;0.47;;;;;;;14.24;100.00;99505.03;5024337;28;20179;-85
2023/07/25 04:08:34;;;;;;;0.90;0.90;;;;;;;14.25;100.00;99503.09;5016710;28;20270;-85
2023/07/25 04:10:59;;;;;;;1.63;1.43;;;;;;;14.25;100.00;99495.66;4998699;28;20180;-84
2023/07/25 04:13:24;;;;;;;1.00;1.00;;;;;;;14.27;100.00;99503.53;5018018;28;20283;-85
2023/07/25 04:15:50;;;;;;;0.33;0.33;;;;;;;14.33;100.00;99499.34;5026637;28;20191;-84
2023/07/25 04:18:15;;;;;;;0.30;0.30;;;;;;;14.35;100.00;99501.75;5026704;28;20266;-84
2023/07/25 04:20:40;;;;;;;0.53;0.53;;;;;;;14.39;100.00;99508.09;5008508;28;20192;-85
2023/07/25 04:23:05;;;;;;;0.60;0.60;;;;;;;14.37;100.00;99505.72;4997954;28;20244;-84
2023/07/25 04:25:31;;;;;;;1.03;1.00;;;;;;;14.38;100.00;99501.00;5029265;28;20196;-85
2023/07/25 04:27:56;;;;;;;0.53;0.33;;;;;;;14.32;100.00;99496.94;5016531;28;20601;-83
2023/07/25 04:30:21;;;;;;;0.00;0.00;;;;;;;14.35;100.00;99497.03;5008474;28;20191;-85
2023/07/25 04:32:46;;;;;;;1.17;0.93;;;;;;;14.34;100.00;99498.19;5025739;28;20283;-86
2023/07/25 04:35:12;;;;;;;0.40;0.33;;;;;;;14.28;100.00;99494.91;5008380;28;20188;-84
2023/07/25 04:37:37;;;;;;;0.00;0.00;;;;;;;14.36;100.00;99493.13;5010891;28;20198;-84
2023/07/25 04:40:03;;;;;;;0.87;0.87;;;;;;;14.26;100.00;99485.44;5008034;28;20199;-84
2023/07/25 04:42:28;;;;;;;0.07;0.07;;;;;;;14.30;100.00;99481.63;5010432;28;20205;-85
2023/07/25 04:44:53;;;;;;;1.10;0.67;;;;;;;14.35;100.00;99491.53;5022944;28;20212;-85
2023/07/25 04:47:18;;;;;;;0.80;0.70;;;;;;;14.35;100.00;99490.75;5003741;28;20192;-84
2023/07/25 04:49:44;;;;;;;0.37;0.37;;;;;;;14.40;100.00;99495.94;4996520;28;20215;-86
2023/07/25 04:52:09;;;;;;;1.17;1.17;;;;;;;14.32;100.00;99492.28;5007321;28;20188;-83
2023/07/25 04:54:34;;;;;;;0.33;0.33;;;;;;;14.30;100.00;99489.06;5019236;28;20615;-84
2023/07/25 04:56:59;;;;;;;0.77;0.53;;;;;;;14.28;100.00;99492.16;5004377;28;20188;-85
2023/07/25 04:59:26;;;;;;;4.90;2.27;;;;;;;14.25;100.00;99494.84;5026950;28;20180;-83
2023/07/25 05:01:51;;;;;;;0.37;0.37;;;;;;;14.26;100.00;99488.19;5016239;28;20219;-83
2023/07/25 05:04:16;;;;;;;0.50;0.50;;;;;;;14.32;100.00;99485.94;5008297;28;20242;-85
2023/07/25 05:06:41;;;;;;;0.70;0.50;;;;;;;14.35;100.00;99488.00;5015835;28;20195;-85
2023/07/25 05:09:07;;;;;;;1.47;0.70;;;;;;;14.43;100.00;99482.28;5030527;28;20200;-84
2023/07/25 05:11:32;;;;;;;0.10;0.10;;;;;;;14.53;100.00;99491.94;5027669;28;20274;-85
2023/07/25 05:13:57;;;;;;;0.57;0.57;;;;;;;14.63;100.00;99485.09;5015495;28;20220;-84
2023/07/25 05:16:23;;;;;;;1.37;1.27;;;;;;;14.62;100.00;99484.28;5008211;28;20257;-85
2023/07/25 05:18:48;;;;;;;1.90;0.73;;;;;;;14.64;100.00;99490.22;5016900;28;20198;-84
2023/07/25 05:21:13;;;;;;;0.70;0.60;;;;;;;14.75;100.00;99490.41;5005322;28;20184;-85
2023/07/25 05:23:38;;;;;;;0.97;0.97;;;;;;;14.81;100.00;99487.03;5030934;28;20216;-86
2023/07/25 05:26:04;;;;;;;0.30;0.30;;;;;;;14.86;100.00;99472.97;5034487;28;20584;-85
2023/07/25 05:28:29;;;;;;;0.00;0.00;;;;;;;14.85;100.00;99465.88;5035426;28;20183;-86
2023/07/25 05:30:54;;;;;;;0.40;0.40;;;;;;;14.82;100.00;99466.63;5033212;28;20238;-86
2023/07/25 05:33:19;;;;;;;9.03;1.60;;;;;;;14.79;100.00;99458.31;5015379;28;20238;-86
2023/07/25 05:35:45;;;;;;;0.00;0.00;;;;;;;14.88;100.00;99459.66;5015880;28;20203;-85
2023/07/25 05:38:10;;;;;;;1.50;0.60;;;;;;;14.92;100.00;99458.94;5022382;28;20176;-85
2023/07/25 05:40:36;;;;;;;0.50;0.50;;;;;;;14.99;100.00;99459.06;5030920;28;20184;-86
2023/07/25 05:43:02;;;;;;;5.33;2.27;;;;;;;14.88;100.00;99467.09;5025570;28;20210;-85
2023/07/25 05:45:28;;;;;;;1.13;0.80;;;;;;;15.00;100.00;99474.41;5020551;28;20180;-86
2023/07/25 05:47:53;;;;;;;0.87;0.70;;;;;;;15.15;100.00;99479.00;5025239;28;20536;-86
2023/07/25 05:50:18;;;;;;;2.13;1.03;;;;;;;15.26;100.00;99482.75;5010060;28;20274;-86
2023/07/25 05:52:43;;;;;;;0.60;0.60;;;;;;;15.37;100.00;99492.00;5016797;28;20204;-87
2023/07/25 05:55:09;;;;;;;1.20;0.90;;;;;;;15.30;100.00;99485.56;5035090;28;20270;-85
2023/07/25 05:57:34;;;;;;;0.30;0.30;;;;;;;15.26;100.00;99484.69;5011183;28;20188;-86
2023/07/25 05:59:59;;;;;;;0.33;0.33;;;;;;;15.20;100.00;99489.72;5013004;28;20184;-87
2023/07/25 06:02:25;;;;;;;0.17;0.17;;;;;;;15.16;100.00;99486.09;4996317;28;20209;-87
2023/07/25 06:04:50;;;;;;;5.23;2.23;;;;;;;15.04;100.00;99495.31;5006385;28;20779;-85
2023/07/25 06:07:15;;;;;;;3.57;0.40;;;;;;;15.06;100.00;99500.47;5024329;28;20721;-86
2023/07/25 06:09:41;;;;;;;0.33;0.33;;;;;;;14.97;100.00;99494.38;5002652;28;20176;-87
2023/07/25 06:12:10;;;;;;;19.43;1.07;;;;;;;15.09;100.00;99506.03;4996878;28;20200;-87
2023/07/25 06:14:36;;;;;;;0.50;0.50;;;;;;;15.01;100.00;99509.00;5006690;28;20192;-84
2023/07/25 06:17:02;;;;;;;0.80;0.80;;;;;;;14.94;100.00;99506.13;5032878;28;20208;-85
2023/07/25 06:19:27;;;;;;;0.10;0.10;;;;;;;14.97;100.00;99513.66;5007259;28;20188;-85
2023/07/25 06:21:52;;;;;;;0.00;0.00;;;;;;;15.08;100.00;99511.91;5032092;28;20246;-85
2023/07/25 06:24:19;;;;;;;0.30;0.30;;;;;;;15.15;100.00;99523.81;5005624;28;20717;-85
2023/07/25 06:26:44;;;;;;;0.30;0.30;;;;;;;15.21;100.00;99520.78;5013638;28;20279;-83
2023/07/25 06:29:09;;;;;;;0.73;0.50;;;;;;;15.23;100.00;99524.75;5029464;28;20215;-85
2023/07/25 06:31:35;;;;;;;0.00;0.00;;;;;;;15.28;100.00;99529.97;5003055;28;20254;-86
2023/07/25 06:34:00;;;;;;;0.20;0.20;;;;;;;15.35;100.00;99530.09;5012890;28;20214;-85
2023/07/25 06:36:25;;;;;;;0.00;0.00;;;;;;;15.42;100.00;99538.47;5014331;28;20199;-84
2023/07/25 06:38:51;;;;;;;1.33;1.27;;;;;;;15.39;100.00;99536.47;5023591;28;20183;-85
2023/07/25 06:41:16;;;;;;;0.43;0.43;;;;;;;15.40;100.00;99534.50;4998741;28;20188;-85
2023/07/25 06:43:41;;;;;;;0.00;0.00;;;;;;;15.46;100.00;99527.50;5016364;28;20208;-84
2023/07/25 06:46:07;;;;;;;1.20;1.20;;;;;;;15.55;100.00;99530.84;5014834;28;20191;-84
2023/07/25 06:48:32;;;;;;;0.97;0.97;;;;;;;15.64;100.00;99536.13;5023901;28;20180;-84
2023/07/25 06:50:57;;;;;;;0.20;0.20;;;;;;;15.68;100.00;99531.47;5022090;28;20188;-85
2023/07/25 06:53:22;;;;;;;0.00;0.00;;;;;;;15.73;100.00;99531.16;5012109;28;20216;-85
2023/07/25 06:55:48;;;;;;;1.37;1.27;;;;;;;15.54;100.00;99523.75;5010800;28;20191;-86
2023/07/25 06:58:13;;;;;;;2.03;1.93;;;;;;;15.37;100.00;99522.28;5023920;28;20530;-85
2023/07/25 07:00:39;;;;;;;2.87;1.80;;;;;;;15.11;100.00;99522.16;5016815;28;20214;-83
2023/07/25 07:03:05;;;;;;;29.50;0.93;;;;;;;15.11;100.00;99533.16;5004731;28;20212;-86
2023/07/25 07:05:34;;;;;;;0.57;0.57;;;;;;;15.00;100.00;99521.16;5000146;28;20196;-86
2023/07/25 07:08:00;;;;;;;0.00;0.00;;;;;;;15.08;100.00;99522.91;5002943;28;20188;-85
2023/07/25 07:10:25;;;;;;;0.00;0.00;;;;;;;15.22;100.00;99512.16;5017140;28;20180;-86
2023/07/25 07:12:53;;;;;;;0.03;0.03;;;;;;;15.43;100.00;99506.22;4997668;28;20208;-86
2023/07/25 07:15:21;;;;;;;1.03;1.03;;;;;;;15.70;100.00;99513.41;5023348;28;20187;-87
2023/07/25 07:17:46;;;;;;;0.77;0.20;;;;;;;15.75;100.00;99498.53;5023839;28;20260;-85
2023/07/25 07:20:12;;;;;;;0.17;0.17;;;;;;;15.79;98.20;99495.84;5023293;28;20195;-85
2023/07/25 07:22:37;;;;;;;0.00;0.00;;;;;;;15.93;97.20;99501.59;5022981;28;20540;-86
2023/07/25 07:25:03;;;;;;;1.60;1.30;;;;;;;16.02;95.26;99491.88;5029555;28;20574;-85
2023/07/25 07:27:28;;;;;;;0.30;0.30;;;;;;;16.15;94.17;99486.16;4999620;28;20230;-87
2023/07/25 07:29:53;;;;;;;1.60;0.80;;;;;;;16.32;94.31;99491.13;5014830;28;20173;-86
2023/07/25 07:32:18;;;;;;;0.60;0.40;;;;;;;16.43;92.81;99489.28;5026193;28;20204;-86
2023/07/25 07:34:44;;;;;;;0.00;0.00;;;;;;;16.45;89.63;99484.19;5026435;28;20725;-86
2023/07/25 07:37:09;;;;;;;0.10;0.10;;;;;;;16.64;90.50;99481.31;5005012;28;20187;-87
2023/07/25 07:39:35;;;;;;;0.97;0.57;;;;;;;16.63;87.40;99473.38;4996739;28;20223;-87
2023/07/25 07:42:01;;;;;;;0.00;0.00;;;;;;;16.72;86.59;99475.91;5009679;28;20200;-86
2023/07/25 07:44:26;;;;;;;0.20;0.20;;;;;;;16.71;87.28;99471.56;5018389;28;20208;-86
2023/07/25 07:46:51;;;;;;;1.37;0.93;;;;;;;16.67;87.49;99466.00;5009855;28;20217;-86
2023/07/25 07:49:16;;;;;;;1.53;1.43;;;;;;;16.52;85.54;99450.44;5011211;28;20670;-86
2023/07/25 07:51:42;;;;;;;0.20;0.20;;;;;;;16.50;83.80;99448.03;5017366;28;20184;-85
2023/07/25 07:54:07;;;;;;;5.93;1.37;;;;;;;16.59;83.74;99451.28;5017392;28;20211;-86
2023/07/25 07:56:32;;;;;;;0.00;0.00;;;;;;;16.48;86.02;99457.84;5021945;28;20184;-86
2023/07/25 07:58:57;;;;;;;0.03;0.03;;;;;;;16.30;84.85;99449.34;5007286;28;20362;-86
2023/07/25 08:01:23;;;;;;;0.57;0.57;;;;;;;16.24;84.15;99440.63;5016522;28;20191;-86
2023/07/25 08:03:49;;;;;;;0.83;0.30;;;;;;;16.23;85.84;99439.03;5006096;28;20345;-85
2023/07/25 08:06:14;;;;;;;0.00;0.00;;;;;;;16.47;87.75;99450.72;5010116;28;20195;-87
2023/07/25 08:08:40;;;;;;;0.47;0.27;;;;;;;16.59;86.79;99448.53;5024455;28;20196;-85
2023/07/25 08:11:06;;;;;;;0.50;0.50;;;;;;;16.55;83.75;99441.41;5001320;28;20655;-86
2023/07/25 08:13:31;;;;;;;0.10;0.10;;;;;;;16.69;83.46;99444.34;5030787;28;20211;-87
2023/07/25 08:15:57;;;;;;;0.00;0.00;;;;;;;16.72;80.02;99429.00;5021429;28;20260;-89
2023/07/25 08:18:22;;;;;;;0.30;0.30;;;;;;;16.85;80.26;99441.38;5002916;28;20293;-89
2023/07/25 08:20:47;;;;;;;1.80;0.67;;;;;;;16.86;78.81;99438.22;5018643;28;20181;-86
2023/07/25 08:23:13;;;;;;;0.10;0.10;;;;;;;16.86;77.76;99427.19;5011138;28;20209;-87
2023/07/25 08:25:39;;;;;;;8.70;1.17;;;;;;;17.02;78.00;99435.22;5021474;28;20534;-86
2023/07/25 08:28:05;;;;;;;0.20;0.20;;;;;;;17.12;76.62;99423.50;5021934;28;20272;-86
2023/07/25 08:30:30;;;;;;;5.90;0.70;;;;;;;17.28;76.29;99439.03;5020595;28;20617;-86
2023/07/25 08:32:55;;;;;;;0.30;0.30;;;;;;;17.01;71.41;99421.81;4994626;28;20339;-86
2023/07/25 08:35:21;;;;;;;0.50;0.50;;;;;;;16.83;70.58;99416.91;5011737;28;20184;-85
2023/07/25 08:37:46;;;;;;;0.37;0.20;;;;;;;16.91;72.32;99426.03;5026474;28;20191;-85
2023/07/25 08:40:11;;;;;;;0.00;0.00;;;;;;;17.14;71.87;99436.94;5002820;28;20186;-84
2023/07/25 08:42:41;;;;;;;0.00;0.00;;;;;;;17.40;72.31;99447.81;4999437;28;20628;-85
2023/07/25 08:45:07;;;;;;;0.37;0.37;;;;;;;17.54;72.13;99438.84;5029425;28;20219;-85
2023/07/25 08:47:34;;;;;;;0.53;0.53;;;;;;;17.51;72.76;99440.41;5023435;28;20215;-86
2023/07/25 08:50:03;;;;;;;0.30;0.20;;;;;;;17.39;74.48;99439.91;5030224;28;20176;-86
2023/07/25 08:52:31;;;;;;;0.00;0.00;;;;;;;17.24;74.53;99433.47;5015828;28;20238;-86
2023/07/25 08:54:57;;;;;;;3.63;0.37;;;;;;;17.22;74.61;99436.63;5032456;28;20226;-86
2023/07/25 08:57:23;;;;;;;0.10;0.10;;;;;;;17.12;73.61;99434.53;5034171;28;20187;-85
2023/07/25 08:59:50;;;;;;;1.13;0.97;;;;;;;17.35;74.78;99441.84;5019801;28;20262;-85
2023/07/25 09:02:16;;;;;;;0.40;0.40;;;;;;;17.59;75.16;99440.47;5010719;28;20190;-86
2023/07/25 09:04:43;;;;;;;0.00;0.00;;;;;;;17.53;70.91;99432.53;5014903;28;20602;-85
2023/07/25 09:07:09;;;;;;;0.17;0.17;;;;;;;17.46;68.74;99428.91;5016027;28;20253;-85
2023/07/25 09:09:34;;;;;;;0.40;0.27;;;;;;;17.42;68.59;99419.81;5008546;28;20655;-85
2023/07/25 09:11:59;;;;;;;0.10;0.10;;;;;;;17.43;68.04;99426.94;5014162;28;20184;-85
2023/07/25 09:14:24;;;;;;;0.07;0.07;;;;;;;17.43;67.12;99421.41;5015860;28;20658;-86
2023/07/25 09:16:50;;;;;;;2.60;0.67;;;;;;;17.55;67.12;99421.91;5033771;28;20599;-85
2023/07/25 09:19:16;;;;;;;0.00;0.00;;;;;;;17.67;66.99;99429.09;5016112;28;20227;-85
2023/07/25 09:21:49;;;;;;;0.43;0.43;;;;;;;17.88;67.60;99439.50;5015554;28;20229;-86
2023/07/25 09:24:15;;;;;;;0.00;0.00;;;;;;;18.26;69.58;99452.00;5015654;28;20347;-86
2023/07/25 09:26:47;;;;;;;0.20;0.20;;;;;;;18.39;68.20;99444.94;5015678;28;20280;-86
2023/07/25 09:29:13;;;;;;;0.30;0.30;;;;;;;18.31;67.82;99451.59;5013818;28;20694;-86
2023/07/25 09:31:46;;;;;;;0.03;0.03;;;;;;;18.28;68.06;99457.91;5022590;28;20257;-86
2023/07/25 09:34:15;;;;;;;0.33;0.33;;;;;;;18.16;66.72;99443.63;5013149;28;20195;-86
2023/07/25 09:36:45;;;;;;;0.10;0.10;;;;;;;18.23;65.72;99452.75;5012078;28;20270;-86
2023/07/25 09:39:10;;;;;;;1.47;1.37;;;;;;;18.33;64.57;99451.22;5008605;28;20179;-86
2023/07/25 09:41:35;;;;;;;0.00;0.00;;;;;;;18.51;62.85;99438.25;5007271;28;20188;-86
2023/07/25 09:44:07;;;;;;;1.13;0.23;;;;;;;18.64;62.31;99447.03;5024733;28;20598;-85
2023/07/25 09:46:33;;;;;;;4.73;0.50;;;;;;;18.68;61.43;99445.09;5009018;28;20196;-86
2023/07/25 09:48:58;;;;;;;0.23;0.23;;;;;;;18.70;62.28;99448.25;5014320;28;20178;-86
2023/07/25 09:51:23;;;;;;;0.30;0.30;;;;;;;18.67;63.51;99451.81;5014714;28;20180;-87
2023/07/25 09:53:54;;;;;;;0.00;0.00;;;;;;;18.57;63.68;99444.22;5024448;28;20231;-85
2023/07/25 09:56:24;;;;;;;0.00;0.00;;;;;;;18.76;64.05;99446.69;5032913;28;20237;-86
2023/07/25 09:58:49;;;;;;;0.00;0.00;;;;;;;18.62;61.35;99418.94;5032975;28;20191;-85
2023/07/25 10:01:15;;;;;;;0.00;0.00;;;;;;;18.81;61.39;99435.25;5011360;28;20185;-86
2023/07/25 10:03:45;;;;;;;0.53;0.20;;;;;;;18.83;60.29;99432.88;5003460;28;20284;-86
2023/07/25 10:06:11;;;;;;;0.00;0.00;;;;;;;19.03;62.02;99444.38;5008921;28;20179;-86
2023/07/25 10:08:41;;;;;;;0.00;0.00;;;;;;;19.20;62.71;99443.59;5003001;28;20266;-87
2023/07/25 10:11:07;;;;;;;0.00;0.00;;;;;;;19.09;62.91;99447.53;5014834;28;20717;-87
2023/07/25 10:13:35;;;;;;;0.20;0.20;;;;;;;18.86;61.33;99434.06;5025770;28;20212;-87
2023/07/25 10:16:01;;;;;;;0.00;0.00;;;;;;;18.61;60.00;99420.13;5012996;28;20187;-87
2023/07/25 10:18:31;;;;;;;0.30;0.30;;;;;;;18.48;58.36;99410.59;5006467;28;20191;-86
2023/07/25 10:20:57;;;;;;;0.00;0.00;;;;;;;18.43;59.54;99418.09;5023494;28;20549;-87
2023/07/25 10:23:37;;;;;;;0.10;0.10;;;;;;;18.47;59.78;99418.09;5010359;28;20208;-87
2023/07/25 10:26:13;;;;;;;0.10;0.10;;;;;;;18.41;57.67;99403.84;5012800;28;20187;-88
2023/07/25 10:28:38;;;;;;;0.00;0.00;;;;;;;18.71;57.96;99417.41;5014372;28;20180;-86
2023/07/25 10:31:08;;;;;;;0.00;0.00;;;;;;;18.49;58.83;99415.72;5006132;28;20176;-86
2023/07/25 10:33:38;;;;;;;0.10;0.10;;;;;;;18.70;61.29;99412.28;5031714;28;20293;-86
2023/07/25 10:36:03;;;;;;;3.40;0.80;;;;;;;18.84;61.91;99436.44;5031801;28;20179;-86
2023/07/25 10:38:34;;;;;;;0.00;0.00;;;;;;;18.80;60.93;99419.78;5006195;28;20180;-87
2023/07/25 10:41:10;;;;;;;0.00;0.00;;;;;;;18.80;61.52;99422.56;4996621;28;20176;-86
2023/07/25 10:43:44;;;;;;;0.60;0.60;;;;;;;19.02;60.41;99424.19;5026745;28;20353;-86
2023/07/25 10:46:13;;;;;;;0.00;0.00;;;;;;;19.11;58.78;99411.97;4995141;28;20245;-86
2023/07/25 10:48:48;;;;;;;0.03;0.03;;;;;;;19.20;58.96;99406.81;5019233;28;20262;-87
2023/07/25 10:51:15;;;;;;;0.00;0.00;;;;;;;19.26;59.33;99413.56;5020228;28;20192;-87
2023/07/25 10:54:01;;;;;;;0.00;0.00;;;;;;;19.13;59.31;99404.06;5002308;28;20223;-87
2023/07/25 10:56:27;;;;;;;0.00;0.00;;;;;;;19.26;58.88;99408.00;4996649;28;20188;-87
2023/07/25 10:59:12;;;;;;;0.00;0.00;;;;;;;19.21;59.43;99405.63;5006058;28;20211;-87
2023/07/25 11:01:47;;;;;;;0.53;0.37;;;;;;;19.38;59.83;99409.56;5002471;28;20176;-86
2023/07/25 11:04:29;;;;;;;0.27;0.20;;;;;;;19.42;59.62;99408.41;5011943;28;20539;-87
2023/07/25 11:07:11;;;;;;;0.40;0.20;;;;;;;19.41;58.31;99390.22;5013348;28;20306;-87
2023/07/25 11:09:41;;;;;;;0.10;0.10;;;;;;;19.50;57.34;99390.56;5014393;28;20278;-86
2023/07/25 11:12:10;;;;;;;0.00;0.00;;;;;;;19.51;55.84;99386.63;5031690;28;20179;-87
2023/07/25 11:14:40;;;;;;;0.03;0.03;;;;;;;19.66;55.95;99389.41;5005994;28;20611;-86
2023/07/25 11:17:06;;;;;;;0.20;0.20;;;;;;;19.16;56.43;99379.13;5014584;28;20287;-87
2023/07/25 11:19:31;;;;;;;0.00;0.00;;;;;;;19.37;57.33;99386.63;5008434;28;20184;-86
2023/07/25 11:21:57;;;;;;;0.00;0.00;;;;;;;19.28;55.70;99373.19;5021386;28;20215;-85